sensor_id;sensor_type;location;lat;lon;timestamp;P1;durP1;ratioP1;P2;durP2;ratioP2
74457;SDS011;62896;51.032;3.712;2024-01-10T00:01:52;11.2;;;5.3;;
74457;SDS011;62896;51.032;3.712;2024-01-10T00:05:12;11.2;;;5.3;;
74457;SDS011;62896;51.032;3.712;2024-01-10T00:08:32;11.2;;;5.3;;
74457;SDS011;62896;51.032;3.712;2024-01-10T00:11:52;9.6;;;4.6;;
74457;SDS011;62896;51.032;3.712;2024-01-10T00:15:12;9.6;;;4.6;;
74457;SDS011;62896;51.032;3.712;2024-01-10T00:18:32;9.6;;;4.6;;
74457;SDS011;62896;51.032;3.712;2024-01-10T00:21:52;9.6;;;4.6;;
74457;SDS011;62896;51.032;3.712;2024-01-10T00:25:12;9.6;;;4.6;;
74457;SDS011;62896;51.032;3.712;2024-01-10T00:28:32;9.6;;;4.6;;
74457;SDS011;62896;51.032;3.712;2024-01-10T00:31:52;9.6;;;4.6;;
74457;SDS011;62896;51.032;3.712;2024-01-10T00:35:12;13.3;;;6;;
74457;SDS011;62896;51.032;3.712;2024-01-10T00:38:32;13.3;;;6;;
74457;SDS011;62896;51.032;3.712;2024-01-10T00:41:52;13.3;;;6;;
74457;SDS011;62896;51.032;3.712;2024-01-10T00:45:12;13.3;;;6;;
74457;SDS011;62896;51.032;3.712;2024-01-10T00:48:32;13.3;;;6;;
74457;SDS011;62896;51.032;3.712;2024-01-10T00:51:52;13.3;;;6;;
74457;SDS011;62896;51.032;3.712;2024-01-10T00:55:12;13.3;;;6;;
74457;SDS011;62896;51.032;3.712;2024-01-10T00:58:32;13.3;;;6;;
74457;SDS011;62896;51.032;3.712;2024-01-10T01:01:52;15;;;7.1;;
74457;SDS011;62896;51.032;3.712;2024-01-10T01:05:12;15;;;7.1;;
74457;SDS011;62896;51.032;3.712;2024-01-10T01:08:32;15;;;7.1;;
74457;SDS011;62896;51.032;3.712;2024-01-10T01:11:52;15;;;7.1;;
74457;SDS011;62896;51.032;3.712;2024-01-10T01:15:12;15;;;7.1;;
74457;SDS011;62896;51.032;3.712;2024-01-10T01:18:32;15;;;7.1;;
74457;SDS011;62896;51.032;3.712;2024-01-10T01:21:52;15;;;7.1;;
74457;SDS011;62896;51.032;3.712;2024-01-10T01:25:12;16;;;7.3;;
74457;SDS011;62896;51.032;3.712;2024-01-10T01:28:32;16;;;7.3;;
74457;SDS011;62896;51.032;3.712;2024-01-10T01:31:52;16;;;7.3;;
74457;SDS011;62896;51.032;3.712;2024-01-10T01:35:12;16;;;7.3;;
74457;SDS011;62896;51.032;3.712;2024-01-10T01:38:32;16;;;7.3;;
74457;SDS011;62896;51.032;3.712;2024-01-10T01:41:52;16;;;7.3;;
74457;SDS011;62896;51.032;3.712;2024-01-10T01:45:12;16;;;7.3;;
74457;SDS011;62896;51.032;3.712;2024-01-10T01:48:32;16;;;7.3;;
74457;SDS011;62896;51.032;3.712;2024-01-10T01:51:52;13.3;;;5.8;;
74457;SDS011;62896;51.032;3.712;2024-01-10T01:55:12;13.3;;;5.8;;
74457;SDS011;62896;51.032;3.712;2024-01-10T01:58:32;13.3;;;5.8;;
74457;SDS011;62896;51.032;3.712;2024-01-10T02:01:52;13.3;;;5.8;;
74457;SDS011;62896;51.032;3.712;2024-01-10T02:05:12;13.3;;;5.8;;
74457;SDS011;62896;51.032;3.712;2024-01-10T02:08:32;13.3;;;5.8;;
74457;SDS011;62896;51.032;3.712;2024-01-10T02:11:52;13.3;;;5.8;;
74457;SDS011;62896;51.032;3.712;2024-01-10T02:15:12;12.9;;;5.9;;
74457;SDS011;62896;51.032;3.712;2024-01-10T02:18:32;12.9;;;5.9;;
74457;SDS011;62896;51.032;3.712;2024-01-10T02:21:52;12.9;;;5.9;;
74457;SDS011;62896;51.032;3.712;2024-01-10T02:25:12;12.9;;;5.9;;
74457;SDS011;62896;51.032;3.712;2024-01-10T02:28:32;12.9;;;5.9;;
74457;SDS011;62896;51.032;3.712;2024-01-10T02:31:52;12.9;;;5.9;;
74457;SDS011;62896;51.032;3.712;2024-01-10T02:35:12;12.9;;;5.9;;
74457;SDS011;62896;51.032;3.712;2024-01-10T02:38:32;12.9;;;5.9;;
74457;SDS011;62896;51.032;3.712;2024-01-10T02:41:52;12.3;;;5.1;;
74457;SDS011;62896;51.032;3.712;2024-01-10T02:45:12;12.3;;;5.1;;
74457;SDS011;62896;51.032;3.712;2024-01-10T02:48:32;12.3;;;5.1;;
74457;SDS011;62896;51.032;3.712;2024-01-10T02:51:52;12.3;;;5.1;;
74457;SDS011;62896;51.032;3.712;2024-01-10T02:55:12;12.3;;;5.1;;
74457;SDS011;62896;51.032;3.712;2024-01-10T02:58:32;12.3;;;5.1;;
74457;SDS011;62896;51.032;3.712;2024-01-10T03:01:52;12.3;;;5.1;;
74457;SDS011;62896;51.032;3.712;2024-01-10T03:05:12;11.5;;;4.6;;
74457;SDS011;62896;51.032;3.712;2024-01-10T03:08:32;11.5;;;4.6;;
74457;SDS011;62896;51.032;3.712;2024-01-10T03:11:52;11.5;;;4.6;;
74457;SDS011;62896;51.032;3.712;2024-01-10T03:15:12;11.5;;;4.6;;
74457;SDS011;62896;51.032;3.712;2024-01-10T03:18:32;11.5;;;4.6;;
74457;SDS011;62896;51.032;3.712;2024-01-10T03:21:52;11.5;;;4.6;;
74457;SDS011;62896;51.032;3.712;2024-01-10T03:25:12;11.5;;;4.6;;
74457;SDS011;62896;51.032;3.712;2024-01-10T03:28:32;11.5;;;4.6;;
74457;SDS011;62896;51.032;3.712;2024-01-10T03:31:52;9.5;;;4.3;;
74457;SDS011;62896;51.032;3.712;2024-01-10T03:35:12;9.5;;;4.3;;
74457;SDS011;62896;51.032;3.712;2024-01-10T03:38:32;9.5;;;4.3;;
74457;SDS011;62896;51.032;3.712;2024-01-10T03:41:52;9.5;;;4.3;;
74457;SDS011;62896;51.032;3.712;2024-01-10T03:45:12;9.5;;;4.3;;
74457;SDS011;62896;51.032;3.712;2024-01-10T03:48:32;9.5;;;4.3;;
74457;SDS011;62896;51.032;3.712;2024-01-10T03:51:52;9.5;;;4.3;;
74457;SDS011;62896;51.032;3.712;2024-01-10T03:55:12;9.1;;;4.5;;
74457;SDS011;62896;51.032;3.712;2024-01-10T03:58:32;9.1;;;4.5;;
74457;SDS011;62896;51.032;3.712;2024-01-10T04:01:52;9.1;;;4.5;;
74457;SDS011;62896;51.032;3.712;2024-01-10T04:05:12;9.1;;;4.5;;
74457;SDS011;62896;51.032;3.712;2024-01-10T04:08:32;9.1;;;4.5;;
74457;SDS011;62896;51.032;3.712;2024-01-10T04:11:52;9.1;;;4.5;;
74457;SDS011;62896;51.032;3.712;2024-01-10T04:15:12;9.1;;;4.5;;
74457;SDS011;62896;51.032;3.712;2024-01-10T04:18:32;9.1;;;4.5;;
74457;SDS011;62896;51.032;3.712;2024-01-10T04:21:52;11.2;;;4.5;;
74457;SDS011;62896;51.032;3.712;2024-01-10T04:25:12;11.2;;;4.5;;
74457;SDS011;62896;51.032;3.712;2024-01-10T04:28:32;11.2;;;4.5;;
74457;SDS011;62896;51.032;3.712;2024-01-10T04:31:52;11.2;;;4.5;;
74457;SDS011;62896;51.032;3.712;2024-01-10T04:35:12;11.2;;;4.5;;
74457;SDS011;62896;51.032;3.712;2024-01-10T04:38:32;11.2;;;4.5;;
74457;SDS011;62896;51.032;3.712;2024-01-10T04:41:52;11.2;;;4.5;;
74457;SDS011;62896;51.032;3.712;2024-01-10T04:45:12;12.9;;;4.5;;
74457;SDS011;62896;51.032;3.712;2024-01-10T04:48:32;12.9;;;4.5;;
74457;SDS011;62896;51.032;3.712;2024-01-10T04:51:52;12.9;;;4.5;;
74457;SDS011;62896;51.032;3.712;2024-01-10T04:55:12;12.9;;;4.5;;
74457;SDS011;62896;51.032;3.712;2024-01-10T04:58:32;12.9;;;4.5;;
74457;SDS011;62896;51.032;3.712;2024-01-10T05:01:52;12.9;;;4.5;;
74457;SDS011;62896;51.032;3.712;2024-01-10T05:05:12;12.9;;;4.5;;
74457;SDS011;62896;51.032;3.712;2024-01-10T05:08:32;12.9;;;4.5;;
74457;SDS011;62896;51.032;3.712;2024-01-10T05:11:52;11;;;4.5;;
74457;SDS011;62896;51.032;3.712;2024-01-10T05:15:12;11;;;4.5;;
74457;SDS011;62896;51.032;3.712;2024-01-10T05:18:32;11;;;4.5;;
74457;SDS011;62896;51.032;3.712;2024-01-10T05:21:52;11;;;4.5;;
74457;SDS011;62896;51.032;3.712;2024-01-10T05:25:12;11;;;4.5;;
74457;SDS011;62896;51.032;3.712;2024-01-10T05:28:32;11;;;4.5;;
74457;SDS011;62896;51.032;3.712;2024-01-10T05:31:52;11;;;4.5;;
74457;SDS011;62896;51.032;3.712;2024-01-10T05:35:12;9.7;;;4.3;;
74457;SDS011;62896;51.032;3.712;2024-01-10T05:38:32;9.7;;;4.3;;
74457;SDS011;62896;51.032;3.712;2024-01-10T05:41:52;9.7;;;4.3;;
74457;SDS011;62896;51.032;3.712;2024-01-10T05:45:12;9.7;;;4.3;;
74457;SDS011;62896;51.032;3.712;2024-01-10T05:48:32;9.7;;;4.3;;
74457;SDS011;62896;51.032;3.712;2024-01-10T05:51:52;9.7;;;4.3;;
74457;SDS011;62896;51.032;3.712;2024-01-10T05:55:12;9.7;;;4.3;;
74457;SDS011;62896;51.032;3.712;2024-01-10T05:58:32;9.7;;;4.3;;
74457;SDS011;62896;51.032;3.712;2024-01-10T06:01:52;9.6;;;4.2;;
74457;SDS011;62896;51.032;3.712;2024-01-10T06:05:12;9.6;;;4.2;;
74457;SDS011;62896;51.032;3.712;2024-01-10T06:08:32;9.6;;;4.2;;
74457;SDS011;62896;51.032;3.712;2024-01-10T06:11:52;9.6;;;4.2;;
74457;SDS011;62896;51.032;3.712;2024-01-10T06:15:12;9.6;;;4.2;;
74457;SDS011;62896;51.032;3.712;2024-01-10T06:18:32;9.6;;;4.2;;
74457;SDS011;62896;51.032;3.712;2024-01-10T06:21:52;9.6;;;4.2;;
74457;SDS011;62896;51.032;3.712;2024-01-10T06:25:12;9.8;;;4.3;;
74457;SDS011;62896;51.032;3.712;2024-01-10T06:28:32;9.8;;;4.3;;
74457;SDS011;62896;51.032;3.712;2024-01-10T06:31:52;9.8;;;4.3;;
74457;SDS011;62896;51.032;3.712;2024-01-10T06:35:12;9.8;;;4.3;;
74457;SDS011;62896;51.032;3.712;2024-01-10T06:38:32;9.8;;;4.3;;
74457;SDS011;62896;51.032;3.712;2024-01-10T06:41:52;9.8;;;4.3;;
74457;SDS011;62896;51.032;3.712;2024-01-10T06:45:12;9.8;;;4.3;;
74457;SDS011;62896;51.032;3.712;2024-01-10T06:48:32;9.8;;;4.3;;
74457;SDS011;62896;51.032;3.712;2024-01-10T06:51:52;10.1;;;4.6;;
74457;SDS011;62896;51.032;3.712;2024-01-10T06:55:12;10.1;;;4.6;;
74457;SDS011;62896;51.032;3.712;2024-01-10T06:58:32;10.1;;;4.6;;
74457;SDS011;62896;51.032;3.712;2024-01-10T07:01:52;10.1;;;4.6;;
74457;SDS011;62896;51.032;3.712;2024-01-10T07:05:12;10.1;;;4.6;;
74457;SDS011;62896;51.032;3.712;2024-01-10T07:08:32;10.1;;;4.6;;
74457;SDS011;62896;51.032;3.712;2024-01-10T07:11:52;10.1;;;4.6;;
74457;SDS011;62896;51.032;3.712;2024-01-10T07:15:12;8.8;;;4.4;;
74457;SDS011;62896;51.032;3.712;2024-01-10T07:18:32;8.8;;;4.4;;
74457;SDS011;62896;51.032;3.712;2024-01-10T07:21:52;8.8;;;4.4;;
74457;SDS011;62896;51.032;3.712;2024-01-10T07:25:12;8.8;;;4.4;;
74457;SDS011;62896;51.032;3.712;2024-01-10T07:28:32;8.8;;;4.4;;
74457;SDS011;62896;51.032;3.712;2024-01-10T07:31:52;8.8;;;4.4;;
74457;SDS011;62896;51.032;3.712;2024-01-10T07:35:12;8.8;;;4.4;;
74457;SDS011;62896;51.032;3.712;2024-01-10T07:38:32;8.8;;;4.4;;
74457;SDS011;62896;51.032;3.712;2024-01-10T07:41:52;10.6;;;4.7;;
74457;SDS011;62896;51.032;3.712;2024-01-10T07:45:12;10.6;;;4.7;;
74457;SDS011;62896;51.032;3.712;2024-01-10T07:48:32;10.6;;;4.7;;
74457;SDS011;62896;51.032;3.712;2024-01-10T07:51:52;10.6;;;4.7;;
74457;SDS011;62896;51.032;3.712;2024-01-10T07:55:12;10.6;;;4.7;;
74457;SDS011;62896;51.032;3.712;2024-01-10T07:58:32;10.6;;;4.7;;
74457;SDS011;62896;51.032;3.712;2024-01-10T08:01:54;10.6;;;4.7;;
74457;SDS011;62896;51.032;3.712;2024-01-10T08:05:12;10.7;;;4.9;;
74457;SDS011;62896;51.032;3.712;2024-01-10T08:08:32;10.7;;;4.9;;
74457;SDS011;62896;51.032;3.712;2024-01-10T08:11:52;10.7;;;4.9;;
74457;SDS011;62896;51.032;3.712;2024-01-10T08:15:12;10.7;;;4.9;;
74457;SDS011;62896;51.032;3.712;2024-01-10T08:18:32;10.7;;;4.9;;
74457;SDS011;62896;51.032;3.712;2024-01-10T08:21:52;10.7;;;4.9;;
74457;SDS011;62896;51.032;3.712;2024-01-10T08:25:12;10.7;;;4.9;;
74457;SDS011;62896;51.032;3.712;2024-01-10T08:28:32;10.7;;;4.9;;
74457;SDS011;62896;51.032;3.712;2024-01-10T08:31:52;13.5;;;4.7;;
74457;SDS011;62896;51.032;3.712;2024-01-10T08:35:12;13.5;;;4.7;;
74457;SDS011;62896;51.032;3.712;2024-01-10T08:38:32;13.5;;;4.7;;
74457;SDS011;62896;51.032;3.712;2024-01-10T08:41:52;13.5;;;4.7;;
74457;SDS011;62896;51.032;3.712;2024-01-10T08:45:12;13.5;;;4.7;;
74457;SDS011;62896;51.032;3.712;2024-01-10T08:48:32;13.5;;;4.7;;
74457;SDS011;62896;51.032;3.712;2024-01-10T08:51:52;13.5;;;4.7;;
74457;SDS011;62896;51.032;3.712;2024-01-10T08:55:12;9.7;;;4.5;;
74457;SDS011;62896;51.032;3.712;2024-01-10T08:58:32;9.7;;;4.5;;
74457;SDS011;62896;51.032;3.712;2024-01-10T09:01:52;9.7;;;4.5;;
74457;SDS011;62896;51.032;3.712;2024-01-10T09:05:12;9.7;;;4.5;;
74457;SDS011;62896;51.032;3.712;2024-01-10T09:08:32;9.7;;;4.5;;
74457;SDS011;62896;51.032;3.712;2024-01-10T09:11:52;9.7;;;4.5;;
74457;SDS011;62896;51.032;3.712;2024-01-10T09:15:12;9.7;;;4.5;;
74457;SDS011;62896;51.032;3.712;2024-01-10T09:18:32;9.7;;;4.5;;
74457;SDS011;62896;51.032;3.712;2024-01-10T09:21:52;13.4;;;5.3;;
74457;SDS011;62896;51.032;3.712;2024-01-10T09:25:12;13.4;;;5.3;;
74457;SDS011;62896;51.032;3.712;2024-01-10T09:28:32;13.4;;;5.3;;
74457;SDS011;62896;51.032;3.712;2024-01-10T09:31:52;13.4;;;5.3;;
74457;SDS011;62896;51.032;3.712;2024-01-10T09:35:12;13.4;;;5.3;;
74457;SDS011;62896;51.032;3.712;2024-01-10T09:38:34;13.4;;;5.3;;
74457;SDS011;62896;51.032;3.712;2024-01-10T09:41:52;13.4;;;5.3;;
74457;SDS011;62896;51.032;3.712;2024-01-10T09:45:12;15.4;;;5.9;;
74457;SDS011;62896;51.032;3.712;2024-01-10T09:48:32;15.4;;;5.9;;
74457;SDS011;62896;51.032;3.712;2024-01-10T09:51:53;15.4;;;5.9;;
74457;SDS011;62896;51.032;3.712;2024-01-10T09:55:12;15.4;;;5.9;;
74457;SDS011;62896;51.032;3.712;2024-01-10T09:58:32;15.4;;;5.9;;
74457;SDS011;62896;51.032;3.712;2024-01-10T10:01:52;15.4;;;5.9;;
74457;SDS011;62896;51.032;3.712;2024-01-10T10:05:13;15.4;;;5.9;;
74457;SDS011;62896;51.032;3.712;2024-01-10T10:08:32;15.4;;;5.9;;
74457;SDS011;62896;51.032;3.712;2024-01-10T10:11:53;12.8;;;5.8;;
74457;SDS011;62896;51.032;3.712;2024-01-10T10:15:12;12.8;;;5.8;;
74457;SDS011;62896;51.032;3.712;2024-01-10T10:18:32;12.8;;;5.8;;
74457;SDS011;62896;51.032;3.712;2024-01-10T10:21:52;12.8;;;5.8;;
74457;SDS011;62896;51.032;3.712;2024-01-10T10:25:15;12.8;;;5.8;;
74457;SDS011;62896;51.032;3.712;2024-01-10T10:28:32;12.8;;;5.8;;
74457;SDS011;62896;51.032;3.712;2024-01-10T10:31:52;12.8;;;5.8;;
74457;SDS011;62896;51.032;3.712;2024-01-10T10:35:12;14.5;;;6.1;;
74457;SDS011;62896;51.032;3.712;2024-01-10T10:38:32;14.5;;;6.1;;
74457;SDS011;62896;51.032;3.712;2024-01-10T10:41:52;14.5;;;6.1;;
74457;SDS011;62896;51.032;3.712;2024-01-10T10:45:13;14.5;;;6.1;;
74457;SDS011;62896;51.032;3.712;2024-01-10T10:48:32;14.5;;;6.1;;
74457;SDS011;62896;51.032;3.712;2024-01-10T10:51:52;14.5;;;6.1;;
74457;SDS011;62896;51.032;3.712;2024-01-10T10:55:13;14.5;;;6.1;;
74457;SDS011;62896;51.032;3.712;2024-01-10T10:58:33;14.5;;;6.1;;
74457;SDS011;62896;51.032;3.712;2024-01-10T11:01:52;15.3;;;6.7;;
74457;SDS011;62896;51.032;3.712;2024-01-10T11:05:12;15.3;;;6.7;;
74457;SDS011;62896;51.032;3.712;2024-01-10T11:08:33;15.3;;;6.7;;
74457;SDS011;62896;51.032;3.712;2024-01-10T13:05:12;15;;;7.3;;
74457;SDS011;62896;51.032;3.712;2024-01-10T13:08:32;15;;;7.3;;
74457;SDS011;62896;51.032;3.712;2024-01-10T13:11:52;15;;;7.3;;
74457;SDS011;62896;51.032;3.712;2024-01-10T13:15:12;15;;;7.3;;
74457;SDS011;62896;51.032;3.712;2024-01-10T13:18:32;15;;;7.3;;
74457;SDS011;62896;51.032;3.712;2024-01-10T13:21:52;15;;;7.3;;
74457;SDS011;62896;51.032;3.712;2024-01-10T13:25:12;15;;;7.3;;
74457;SDS011;62896;51.032;3.712;2024-01-10T13:28:32;15;;;7.3;;
74457;SDS011;62896;51.032;3.712;2024-01-10T13:31:52;19.1;;;8.8;;
74457;SDS011;62896;51.032;3.712;2024-01-10T13:35:12;19.1;;;8.8;;
74457;SDS011;62896;51.032;3.712;2024-01-10T13:38:32;19.1;;;8.8;;
74457;SDS011;62896;51.032;3.712;2024-01-10T13:41:52;19.1;;;8.8;;
74457;SDS011;62896;51.032;3.712;2024-01-10T13:45:12;19.1;;;8.8;;
74457;SDS011;62896;51.032;3.712;2024-01-10T13:48:32;19.1;;;8.8;;
74457;SDS011;62896;51.032;3.712;2024-01-10T13:51:52;19.1;;;8.8;;
74457;SDS011;62896;51.032;3.712;2024-01-10T13:55:12;15.2;;;7.7;;
74457;SDS011;62896;51.032;3.712;2024-01-10T13:58:32;15.2;;;7.7;;
74457;SDS011;62896;51.032;3.712;2024-01-10T14:01:52;15.2;;;7.7;;
74457;SDS011;62896;51.032;3.712;2024-01-10T14:05:12;15.2;;;7.7;;
74457;SDS011;62896;51.032;3.712;2024-01-10T14:08:32;15.2;;;7.7;;
74457;SDS011;62896;51.032;3.712;2024-01-10T14:11:52;15.2;;;7.7;;
74457;SDS011;62896;51.032;3.712;2024-01-10T14:15:12;15.2;;;7.7;;
74457;SDS011;62896;51.032;3.712;2024-01-10T14:18:32;15.2;;;7.7;;
74457;SDS011;62896;51.032;3.712;2024-01-10T14:21:52;15.3;;;8.3;;
74457;SDS011;62896;51.032;3.712;2024-01-10T14:25:12;15.3;;;8.3;;
74457;SDS011;62896;51.032;3.712;2024-01-10T14:28:32;15.3;;;8.3;;
74457;SDS011;62896;51.032;3.712;2024-01-10T14:31:52;15.3;;;8.3;;
74457;SDS011;62896;51.032;3.712;2024-01-10T14:35:12;15.3;;;8.3;;
74457;SDS011;62896;51.032;3.712;2024-01-10T14:38:32;15.3;;;8.3;;
74457;SDS011;62896;51.032;3.712;2024-01-10T14:41:52;15.3;;;8.3;;
74457;SDS011;62896;51.032;3.712;2024-01-10T14:45:12;15.9;;;8.8;;
74457;SDS011;62896;51.032;3.712;2024-01-10T14:48:32;15.9;;;8.8;;
74457;SDS011;62896;51.032;3.712;2024-01-10T14:51:52;15.9;;;8.8;;
74457;SDS011;62896;51.032;3.712;2024-01-10T14:55:12;15.9;;;8.8;;
74457;SDS011;62896;51.032;3.712;2024-01-10T14:58:32;15.9;;;8.8;;
74457;SDS011;62896;51.032;3.712;2024-01-10T15:01:52;15.9;;;8.8;;
74457;SDS011;62896;51.032;3.712;2024-01-10T15:05:12;15.9;;;8.8;;
74457;SDS011;62896;51.032;3.712;2024-01-10T15:08:32;15.9;;;8.8;;
74457;SDS011;62896;51.032;3.712;2024-01-10T15:11:52;15.3;;;8.2;;
74457;SDS011;62896;51.032;3.712;2024-01-10T15:15:12;15.3;;;8.2;;
74457;SDS011;62896;51.032;3.712;2024-01-10T15:18:32;15.3;;;8.2;;
74457;SDS011;62896;51.032;3.712;2024-01-10T15:21:52;15.3;;;8.2;;
74457;SDS011;62896;51.032;3.712;2024-01-10T15:25:12;15.3;;;8.2;;
74457;SDS011;62896;51.032;3.712;2024-01-10T15:28:32;15.3;;;8.2;;
74457;SDS011;62896;51.032;3.712;2024-01-10T15:31:52;15.3;;;8.2;;
74457;SDS011;62896;51.032;3.712;2024-01-10T15:35:12;14.8;;;8.1;;
74457;SDS011;62896;51.032;3.712;2024-01-10T15:38:32;14.8;;;8.1;;
74457;SDS011;62896;51.032;3.712;2024-01-10T15:41:52;14.8;;;8.1;;
74457;SDS011;62896;51.032;3.712;2024-01-10T15:45:12;14.8;;;8.1;;
74457;SDS011;62896;51.032;3.712;2024-01-10T15:48:32;14.8;;;8.1;;
74457;SDS011;62896;51.032;3.712;2024-01-10T15:51:52;14.8;;;8.1;;
74457;SDS011;62896;51.032;3.712;2024-01-10T15:55:12;14.8;;;8.1;;
74457;SDS011;62896;51.032;3.712;2024-01-10T15:58:32;14.8;;;8.1;;
74457;SDS011;62896;51.032;3.712;2024-01-10T16:01:52;19.8;;;8.7;;
74457;SDS011;62896;51.032;3.712;2024-01-10T16:05:12;19.8;;;8.7;;
74457;SDS011;62896;51.032;3.712;2024-01-10T16:08:32;19.8;;;8.7;;
74457;SDS011;62896;51.032;3.712;2024-01-10T16:11:52;19.8;;;8.7;;
74457;SDS011;62896;51.032;3.712;2024-01-10T16:15:12;19.8;;;8.7;;
74457;SDS011;62896;51.032;3.712;2024-01-10T16:18:32;19.8;;;8.7;;
74457;SDS011;62896;51.032;3.712;2024-01-10T16:21:52;19.8;;;8.7;;
74457;SDS011;62896;51.032;3.712;2024-01-10T16:25:12;19.6;;;8.9;;
74457;SDS011;62896;51.032;3.712;2024-01-10T16:28:32;19.6;;;8.9;;
74457;SDS011;62896;51.032;3.712;2024-01-10T16:31:52;19.6;;;8.9;;
74457;SDS011;62896;51.032;3.712;2024-01-10T16:35:12;19.6;;;8.9;;
74457;SDS011;62896;51.032;3.712;2024-01-10T16:38:32;19.6;;;8.9;;
74457;SDS011;62896;51.032;3.712;2024-01-10T16:41:52;19.6;;;8.9;;
74457;SDS011;62896;51.032;3.712;2024-01-10T16:45:12;19.6;;;8.9;;
74457;SDS011;62896;51.032;3.712;2024-01-10T16:48:32;19.6;;;8.9;;
74457;SDS011;62896;51.032;3.712;2024-01-10T16:51:52;18.9;;;9.6;;
74457;SDS011;62896;51.032;3.712;2024-01-10T16:55:12;18.9;;;9.6;;
74457;SDS011;62896;51.032;3.712;2024-01-10T16:58:32;18.9;;;9.6;;
74457;SDS011;62896;51.032;3.712;2024-01-10T17:01:52;18.9;;;9.6;;
74457;SDS011;62896;51.032;3.712;2024-01-10T17:05:12;18.9;;;9.6;;
74457;SDS011;62896;51.032;3.712;2024-01-10T17:08:32;18.9;;;9.6;;
74457;SDS011;62896;51.032;3.712;2024-01-10T17:11:52;18.9;;;9.6;;
74457;SDS011;62896;51.032;3.712;2024-01-10T17:15:12;19.1;;;9.7;;
74457;SDS011;62896;51.032;3.712;2024-01-10T17:18:32;19.1;;;9.7;;
74457;SDS011;62896;51.032;3.712;2024-01-10T17:21:52;19.1;;;9.7;;
74457;SDS011;62896;51.032;3.712;2024-01-10T17:25:12;19.1;;;9.7;;
74457;SDS011;62896;51.032;3.712;2024-01-10T17:28:32;19.1;;;9.7;;
74457;SDS011;62896;51.032;3.712;2024-01-10T17:31:52;19.1;;;9.7;;
74457;SDS011;62896;51.032;3.712;2024-01-10T17:35:12;19.1;;;9.7;;
74457;SDS011;62896;51.032;3.712;2024-01-10T17:38:32;19.1;;;9.7;;
74457;SDS011;62896;51.032;3.712;2024-01-10T17:41:52;20.5;;;9.8;;
74457;SDS011;62896;51.032;3.712;2024-01-10T17:45:12;20.5;;;9.8;;
74457;SDS011;62896;51.032;3.712;2024-01-10T17:48:32;20.5;;;9.8;;
74457;SDS011;62896;51.032;3.712;2024-01-10T17:51:52;20.5;;;9.8;;
74457;SDS011;62896;51.032;3.712;2024-01-10T17:55:12;20.5;;;9.8;;
74457;SDS011;62896;51.032;3.712;2024-01-10T17:58:32;20.5;;;9.8;;
74457;SDS011;62896;51.032;3.712;2024-01-10T18:01:52;20.5;;;9.8;;
74457;SDS011;62896;51.032;3.712;2024-01-10T18:05:12;21;;;10.3;;
74457;SDS011;62896;51.032;3.712;2024-01-10T18:08:32;21;;;10.3;;
74457;SDS011;62896;51.032;3.712;2024-01-10T18:11:52;21;;;10.3;;
74457;SDS011;62896;51.032;3.712;2024-01-10T18:15:12;21;;;10.3;;
74457;SDS011;62896;51.032;3.712;2024-01-10T18:18:32;21;;;10.3;;
74457;SDS011;62896;51.032;3.712;2024-01-10T18:21:52;21;;;10.3;;
74457;SDS011;62896;51.032;3.712;2024-01-10T18:25:12;21;;;10.3;;
74457;SDS011;62896;51.032;3.712;2024-01-10T18:28:32;21;;;10.3;;
74457;SDS011;62896;51.032;3.712;2024-01-10T18:31:52;21.3;;;10.3;;
74457;SDS011;62896;51.032;3.712;2024-01-10T18:35:12;21.3;;;10.3;;
74457;SDS011;62896;51.032;3.712;2024-01-10T18:38:32;21.3;;;10.3;;
74457;SDS011;62896;51.032;3.712;2024-01-10T18:41:52;21.3;;;10.3;;
74457;SDS011;62896;51.032;3.712;2024-01-10T18:45:12;21.3;;;10.3;;
74457;SDS011;62896;51.032;3.712;2024-01-10T18:48:32;21.3;;;10.3;;
74457;SDS011;62896;51.032;3.712;2024-01-10T18:51:52;21.3;;;10.3;;
74457;SDS011;62896;51.032;3.712;2024-01-10T18:55:12;21;;;10.5;;
74457;SDS011;62896;51.032;3.712;2024-01-10T18:58:32;21;;;10.5;;
74457;SDS011;62896;51.032;3.712;2024-01-10T19:01:52;21;;;10.5;;
74457;SDS011;62896;51.032;3.712;2024-01-10T19:05:12;21;;;10.5;;
74457;SDS011;62896;51.032;3.712;2024-01-10T19:08:32;21;;;10.5;;
74457;SDS011;62896;51.032;3.712;2024-01-10T19:11:52;21;;;10.5;;
74457;SDS011;62896;51.032;3.712;2024-01-10T19:15:12;21;;;10.5;;
74457;SDS011;62896;51.032;3.712;2024-01-10T19:18:32;21;;;10.5;;
74457;SDS011;62896;51.032;3.712;2024-01-10T19:21:52;23.2;;;10.8;;
74457;SDS011;62896;51.032;3.712;2024-01-10T19:25:12;23.2;;;10.8;;
74457;SDS011;62896;51.032;3.712;2024-01-10T19:28:32;23.2;;;10.8;;
74457;SDS011;62896;51.032;3.712;2024-01-10T19:31:52;23.2;;;10.8;;
74457;SDS011;62896;51.032;3.712;2024-01-10T19:35:12;23.2;;;10.8;;
74457;SDS011;62896;51.032;3.712;2024-01-10T19:38:32;23.2;;;10.8;;
74457;SDS011;62896;51.032;3.712;2024-01-10T19:41:52;23.2;;;10.8;;
74457;SDS011;62896;51.032;3.712;2024-01-10T19:45:12;25.3;;;12.5;;
74457;SDS011;62896;51.032;3.712;2024-01-10T19:48:32;25.3;;;12.5;;
74457;SDS011;62896;51.032;3.712;2024-01-10T19:51:52;25.3;;;12.5;;
74457;SDS011;62896;51.032;3.712;2024-01-10T19:55:12;25.3;;;12.5;;
74457;SDS011;62896;51.032;3.712;2024-01-10T19:58:32;25.3;;;12.5;;
74457;SDS011;62896;51.032;3.712;2024-01-10T20:01:52;25.3;;;12.5;;
74457;SDS011;62896;51.032;3.712;2024-01-10T20:05:12;25.3;;;12.5;;
74457;SDS011;62896;51.032;3.712;2024-01-10T20:08:32;25.3;;;12.5;;
74457;SDS011;62896;51.032;3.712;2024-01-10T20:11:52;28.6;;;13.1;;
74457;SDS011;62896;51.032;3.712;2024-01-10T20:15:12;28.6;;;13.1;;
74457;SDS011;62896;51.032;3.712;2024-01-10T20:18:32;28.6;;;13.1;;
74457;SDS011;62896;51.032;3.712;2024-01-10T20:21:52;28.6;;;13.1;;
74457;SDS011;62896;51.032;3.712;2024-01-10T20:25:12;28.6;;;13.1;;
74457;SDS011;62896;51.032;3.712;2024-01-10T20:28:32;28.6;;;13.1;;
74457;SDS011;62896;51.032;3.712;2024-01-10T20:31:52;28.6;;;13.1;;
74457;SDS011;62896;51.032;3.712;2024-01-10T20:35:12;29.1;;;13.4;;
74457;SDS011;62896;51.032;3.712;2024-01-10T20:38:32;29.1;;;13.4;;
74457;SDS011;62896;51.032;3.712;2024-01-10T20:41:52;29.1;;;13.4;;
74457;SDS011;62896;51.032;3.712;2024-01-10T20:45:12;29.1;;;13.4;;
74457;SDS011;62896;51.032;3.712;2024-01-10T20:48:32;29.1;;;13.4;;
74457;SDS011;62896;51.032;3.712;2024-01-10T20:51:52;29.1;;;13.4;;
74457;SDS011;62896;51.032;3.712;2024-01-10T20:55:12;29.1;;;13.4;;
74457;SDS011;62896;51.032;3.712;2024-01-10T20:58:32;29.1;;;13.4;;
74457;SDS011;62896;51.032;3.712;2024-01-10T21:01:52;30;;;13.6;;
74457;SDS011;62896;51.032;3.712;2024-01-10T21:05:12;30;;;13.6;;
74457;SDS011;62896;51.032;3.712;2024-01-10T21:08:32;30;;;13.6;;
74457;SDS011;62896;51.032;3.712;2024-01-10T21:11:52;30;;;13.6;;
74457;SDS011;62896;51.032;3.712;2024-01-10T21:15:12;30;;;13.6;;
74457;SDS011;62896;51.032;3.712;2024-01-10T21:18:32;30;;;13.6;;
74457;SDS011;62896;51.032;3.712;2024-01-10T21:21:52;30;;;13.6;;
74457;SDS011;62896;51.032;3.712;2024-01-10T21:25:12;28.1;;;13.4;;
74457;SDS011;62896;51.032;3.712;2024-01-10T21:28:32;28.1;;;13.4;;
74457;SDS011;62896;51.032;3.712;2024-01-10T21:31:52;28.1;;;13.4;;
74457;SDS011;62896;51.032;3.712;2024-01-10T21:35:12;28.1;;;13.4;;
74457;SDS011;62896;51.032;3.712;2024-01-10T21:38:32;28.1;;;13.4;;
74457;SDS011;62896;51.032;3.712;2024-01-10T21:41:52;28.1;;;13.4;;
74457;SDS011;62896;51.032;3.712;2024-01-10T21:45:12;28.1;;;13.4;;
74457;SDS011;62896;51.032;3.712;2024-01-10T21:48:32;28.1;;;13.4;;
74457;SDS011;62896;51.032;3.712;2024-01-10T21:51:52;28.7;;;12.6;;
74457;SDS011;62896;51.032;3.712;2024-01-10T21:55:12;28.7;;;12.6;;
74457;SDS011;62896;51.032;3.712;2024-01-10T21:58:32;28.7;;;12.6;;
74457;SDS011;62896;51.032;3.712;2024-01-10T22:01:52;28.7;;;12.6;;
74457;SDS011;62896;51.032;3.712;2024-01-10T22:05:12;28.7;;;12.6;;
74457;SDS011;62896;51.032;3.712;2024-01-10T22:08:32;28.7;;;12.6;;
74457;SDS011;62896;51.032;3.712;2024-01-10T22:11:52;28.7;;;12.6;;
74457;SDS011;62896;51.032;3.712;2024-01-10T22:15:12;27.9;;;13.2;;
74457;SDS011;62896;51.032;3.712;2024-01-10T22:18:32;27.9;;;13.2;;
74457;SDS011;62896;51.032;3.712;2024-01-10T22:21:52;27.9;;;13.2;;